createdAt,value
2022-08-29T00:01:00.715Z,5.28
2022-08-29T00:04:06.619Z,5.47
2022-08-29T00:07:09.320Z,5.37
2022-08-29T00:10:12.256Z,5.70
2022-08-29T00:13:16.204Z,5.57
2022-08-29T00:16:19.034Z,5.37
2022-08-29T00:19:23.133Z,5.90
2022-08-29T00:22:25.823Z,6.33
2022-08-29T00:25:28.775Z,6.15
2022-08-29T00:28:31.584Z,5.93
2022-08-29T00:31:34.321Z,5.50
2022-08-29T00:34:38.470Z,5.93
2022-08-29T00:37:41.713Z,6.23
2022-08-29T00:40:51.466Z,6.03
2022-08-29T00:43:54.803Z,6.30
2022-08-29T00:46:58.793Z,6.10
2022-08-29T00:50:07.699Z,6.57
2022-08-29T00:53:13.151Z,6.33
2022-08-29T00:56:18.253Z,6.07
2022-08-29T00:59:22.929Z,6.30
2022-08-29T01:02:29.226Z,6.03
2022-08-29T01:08:36.170Z,6.22
2022-08-29T01:11:56.442Z,5.47
2022-08-29T01:15:02.309Z,6.13
2022-08-29T01:18:05.952Z,5.97
2022-08-29T01:21:21.079Z,6.40
2022-08-29T01:24:31.445Z,6.37
2022-08-29T01:27:36.445Z,6.83
2022-08-29T01:30:57.692Z,6.60
2022-08-29T01:34:00.497Z,5.73
2022-08-29T01:37:06.177Z,6.78
2022-08-29T01:40:11.722Z,6.20
2022-08-29T01:43:14.472Z,7.17
2022-08-29T01:46:19.459Z,6.68
2022-08-29T01:49:23.252Z,7.83
2022-08-29T01:52:25.883Z,6.80
2022-08-29T01:55:29.950Z,6.85
2022-08-29T01:58:32.665Z,6.43
2022-08-29T02:01:38.705Z,6.88
2022-08-29T02:04:41.388Z,6.63
2022-08-29T02:07:44.472Z,7.03
2022-08-29T02:10:48.353Z,5.93
2022-08-29T02:13:53.373Z,6.57
2022-08-29T02:16:56.164Z,6.87
2022-08-29T02:19:59.137Z,7.00
2022-08-29T02:23:01.730Z,6.70
2022-08-29T02:26:06.699Z,7.35
2022-08-29T02:29:09.713Z,7.40
2022-08-29T02:32:14.512Z,7.25
2022-08-29T02:35:17.820Z,6.87
2022-08-29T02:41:24.715Z,6.40
2022-08-29T02:44:27.361Z,7.07
2022-08-29T02:47:30.244Z,7.55
2022-08-29T02:50:32.885Z,6.75
2022-08-29T02:53:35.405Z,7.43
2022-08-29T02:56:39.442Z,7.45
2022-08-29T02:59:42.061Z,6.63
2022-08-29T03:02:45.961Z,7.22
2022-08-29T03:05:48.916Z,7.50
2022-08-29T03:08:51.934Z,7.95
2022-08-29T03:11:58.713Z,7.40
2022-08-29T03:15:01.374Z,7.50
2022-08-29T03:18:04.186Z,7.88
2022-08-29T03:21:07.307Z,7.47
2022-08-29T03:24:09.935Z,7.38
2022-08-29T03:27:14.053Z,7.97
2022-08-29T03:30:18.714Z,7.87
2022-08-29T03:33:21.467Z,7.93
2022-08-29T03:36:27.132Z,8.30
2022-08-29T03:39:29.875Z,7.50
2022-08-29T03:42:34.005Z,7.45
2022-08-29T03:45:36.606Z,7.97
2022-08-29T03:48:39.262Z,8.25
2022-08-29T03:51:42.370Z,8.15
2022-08-29T03:54:44.928Z,8.15
2022-08-29T03:57:49.198Z,7.50
2022-08-29T04:00:51.829Z,8.03
2022-08-29T04:03:54.587Z,7.78
2022-08-29T04:06:57.283Z,8.45
2022-08-29T04:10:00.520Z,8.30
2022-08-29T04:13:05.873Z,8.35
2022-08-29T04:16:11.294Z,8.50
2022-08-29T04:19:14.435Z,8.57
2022-08-29T04:22:17.065Z,8.23
2022-08-29T04:25:20.145Z,7.78
2022-08-29T04:28:24.453Z,7.80
2022-08-29T04:31:27.187Z,8.87
2022-08-29T04:34:30.351Z,8.90
2022-08-29T04:37:33.735Z,9.20
2022-08-29T04:40:38.463Z,8.13
2022-08-29T04:43:42.658Z,8.30
2022-08-29T04:46:45.306Z,8.93
2022-08-29T04:49:49.717Z,7.75
2022-08-29T04:52:57.384Z,8.17
2022-08-29T04:56:02.342Z,6.93
2022-08-29T04:59:06.560Z,6.97
2022-08-29T05:02:10.027Z,7.70
2022-08-29T05:05:14.888Z,7.45
2022-08-29T05:08:18.072Z,6.73
2022-08-29T05:11:22.911Z,6.88
2022-08-29T05:14:27.236Z,6.10
2022-08-29T05:17:29.888Z,6.50
2022-08-29T05:20:32.595Z,7.10
2022-08-29T05:23:35.903Z,6.93
2022-08-29T05:26:41.372Z,6.97
2022-08-29T05:29:47.764Z,6.93
2022-08-29T05:32:51.999Z,6.57
2022-08-29T05:35:54.892Z,7.17
2022-08-29T05:38:57.683Z,7.75
2022-08-29T05:42:00.694Z,7.00
2022-08-29T05:45:06.446Z,6.90
2022-08-29T05:48:10.217Z,6.93
2022-08-29T05:51:17.321Z,6.80
2022-08-29T05:54:19.977Z,6.80
2022-08-29T05:57:26.373Z,6.32
2022-08-29T06:00:30.307Z,7.07
2022-08-29T06:03:33.250Z,7.33
2022-08-29T06:06:36.165Z,7.07
2022-08-29T06:09:40.219Z,6.53
2022-08-29T06:12:42.834Z,8.33
2022-08-29T06:15:46.866Z,7.30
2022-08-29T06:18:49.690Z,7.70
2022-08-29T06:21:52.840Z,7.38
2022-08-29T06:24:57.585Z,7.25
2022-08-29T06:28:00.553Z,7.87
2022-08-29T06:31:08.844Z,7.70
2022-08-29T06:34:11.797Z,7.57
2022-08-29T06:37:14.454Z,8.65
2022-08-29T06:40:17.295Z,8.82
2022-08-29T06:43:19.953Z,8.80
2022-08-29T06:46:26.958Z,9.38
2022-08-29T06:49:29.863Z,7.83
2022-08-29T06:52:32.391Z,8.02
2022-08-29T06:55:35.948Z,8.10
2022-08-29T06:58:38.650Z,8.13
2022-08-29T07:01:43.753Z,7.40
2022-08-29T07:04:46.447Z,8.03
2022-08-29T07:07:49.268Z,7.78
2022-08-29T07:10:51.963Z,7.90
2022-08-29T07:13:57.085Z,9.02
2022-08-29T07:17:01.027Z,7.83
2022-08-29T07:20:05.012Z,8.10
2022-08-29T07:23:08.716Z,8.43
2022-08-29T07:26:14.365Z,8.67
2022-08-29T07:29:19.901Z,7.80
2022-08-29T07:32:26.027Z,8.00
2022-08-29T07:35:30.867Z,8.50
2022-08-29T07:38:34.279Z,7.97
2022-08-29T07:41:39.177Z,8.43
2022-08-29T07:44:41.716Z,8.40
2022-08-29T07:47:46.579Z,9.15
2022-08-29T07:50:49.982Z,7.80
2022-08-29T07:53:53.058Z,8.20
2022-08-29T07:56:57.462Z,8.93
2022-08-29T08:00:01.558Z,8.87
2022-08-29T08:03:06.795Z,8.30
2022-08-29T08:06:11.076Z,8.77
2022-08-29T08:09:15.265Z,8.37
2022-08-29T08:12:17.938Z,7.73
2022-08-29T08:15:21.961Z,7.43
2022-08-29T08:18:26.464Z,8.10
2022-08-29T08:21:29.344Z,7.07
2022-08-29T08:24:32.664Z,7.82
2022-08-29T08:27:38.105Z,7.27
2022-08-29T08:30:44.276Z,6.73
2022-08-29T08:36:51.097Z,7.57
2022-08-29T08:39:57.178Z,6.35
2022-08-29T08:43:02.766Z,6.77
2022-08-29T08:46:05.474Z,7.13
2022-08-29T08:49:13.794Z,6.32
2022-08-29T08:52:20.577Z,6.77
2022-08-29T08:55:30.303Z,7.13
2022-08-29T08:58:34.649Z,6.60
2022-08-29T09:01:41.882Z,6.07
2022-08-29T09:04:54.646Z,5.30
2022-08-29T09:08:01.816Z,6.30
2022-08-29T09:11:11.282Z,6.00
2022-08-29T09:14:23.572Z,5.90
2022-08-29T09:17:30.461Z,5.53
2022-08-29T09:20:41.375Z,5.65
2022-08-29T09:23:46.334Z,5.30
2022-08-29T09:26:49.629Z,5.40
2022-08-29T09:29:56.858Z,6.15
2022-08-29T09:33:02.639Z,5.47
2022-08-29T09:36:07.040Z,5.20
2022-08-29T09:39:22.489Z,5.55
2022-08-29T09:42:25.044Z,5.68
2022-08-29T09:45:28.178Z,5.10
2022-08-29T09:48:35.319Z,5.20
2022-08-29T09:51:41.024Z,4.78
2022-08-29T09:54:44.812Z,4.32
2022-08-29T09:57:52.415Z,4.65
2022-08-29T10:01:01.723Z,4.55
2022-08-29T10:04:06.751Z,4.40
2022-08-29T10:07:14.720Z,4.45
2022-08-29T10:10:19.993Z,4.03
2022-08-29T10:13:28.969Z,3.97
2022-08-29T10:16:40.366Z,3.17
2022-08-29T10:19:43.865Z,3.30
2022-08-29T10:22:52.860Z,2.88
2022-08-29T10:25:56.326Z,3.95
2022-08-29T10:29:03.964Z,3.58
2022-08-29T10:32:11.749Z,4.05
2022-08-29T10:35:19.545Z,3.00
2022-08-29T10:38:36.883Z,3.40
2022-08-29T10:41:54.815Z,3.25
2022-08-29T10:45:06.382Z,3.80
2022-08-29T10:48:14.255Z,3.55
2022-08-29T10:51:23.351Z,3.03
2022-08-29T10:54:32.813Z,3.35
2022-08-29T10:57:44.207Z,3.22
2022-08-29T11:00:48.754Z,3.15
2022-08-29T11:03:59.013Z,3.42
2022-08-29T11:07:06.068Z,3.60
2022-08-29T11:10:12.138Z,3.35
2022-08-29T11:13:19.331Z,3.63
2022-08-29T11:16:28.632Z,2.70
2022-08-29T11:19:33.805Z,3.13
2022-08-29T11:22:40.845Z,2.72
2022-08-29T11:25:45.392Z,3.42
2022-08-29T11:28:57.208Z,3.28
2022-08-29T11:32:10.406Z,2.80
2022-08-29T11:35:20.619Z,2.85
2022-08-29T11:38:53.111Z,3.08
2022-08-29T11:41:59.099Z,3.92
2022-08-29T11:45:02.536Z,2.80
2022-08-29T11:48:21.037Z,3.22
2022-08-29T11:51:36.242Z,3.42
2022-08-29T11:54:56.483Z,2.78
2022-08-29T11:58:46.224Z,3.50
2022-08-29T12:02:02.008Z,2.75
2022-08-29T12:05:07.122Z,3.28
2022-08-29T12:08:36.186Z,3.15
2022-08-29T12:12:16.915Z,2.72
2022-08-29T12:15:55.263Z,3.00
2022-08-29T12:19:00.130Z,3.20
2022-08-29T12:22:02.795Z,2.85
2022-08-29T12:25:29.998Z,2.70
2022-08-29T12:28:39.228Z,3.63
2022-08-29T12:32:18.246Z,2.85
2022-08-29T12:35:31.777Z,2.95
2022-08-29T12:38:42.407Z,3.72
2022-08-29T12:42:04.821Z,2.75
2022-08-29T12:45:13.053Z,2.70
2022-08-29T12:48:18.335Z,2.67
2022-08-29T12:51:40.723Z,2.88
2022-08-29T12:54:45.908Z,3.25
2022-08-29T12:57:48.855Z,2.70
2022-08-29T13:00:53.732Z,2.90
2022-08-29T13:04:02.514Z,2.40
2022-08-29T13:07:08.282Z,2.58
2022-08-29T13:10:19.277Z,2.33
2022-08-29T13:13:23.596Z,2.35
2022-08-29T13:16:30.105Z,2.17
2022-08-29T13:19:32.790Z,2.60
2022-08-29T13:22:36.806Z,2.22
2022-08-29T13:25:45.997Z,2.20
2022-08-29T13:28:51.716Z,2.30
2022-08-29T13:32:12.267Z,2.35
2022-08-29T13:35:21.041Z,2.55
2022-08-29T13:38:27.343Z,2.58
2022-08-29T13:41:30.221Z,2.45
2022-08-29T13:44:36.113Z,2.40
2022-08-29T13:47:57.041Z,2.33
2022-08-29T13:51:03.410Z,2.10
2022-08-29T13:54:10.535Z,2.20
2022-08-29T13:57:15.099Z,2.03
2022-08-29T14:00:19.081Z,2.75
2022-08-29T14:03:35.343Z,2.00
2022-08-29T14:06:38.177Z,2.58
2022-08-29T14:09:44.407Z,2.35
2022-08-29T14:12:47.680Z,2.63
2022-08-29T14:15:50.296Z,2.70
2022-08-29T14:18:53.727Z,2.65
2022-08-29T14:21:59.076Z,2.78
2022-08-29T14:25:03.282Z,2.55
2022-08-29T14:28:05.978Z,2.50
2022-08-29T14:31:09.019Z,2.40
2022-08-29T14:34:12.322Z,2.53
2022-08-29T14:37:15.125Z,2.70
2022-08-29T14:40:21.871Z,2.20
2022-08-29T14:43:24.892Z,2.60
2022-08-29T14:46:28.830Z,2.03
2022-08-29T14:49:32.038Z,2.53
2022-08-29T14:52:34.759Z,2.55
2022-08-29T14:55:39.045Z,2.38
2022-08-29T14:58:41.822Z,2.38
2022-08-29T15:01:44.637Z,2.10
2022-08-29T15:04:51.509Z,2.30
2022-08-29T15:07:54.349Z,2.50
2022-08-29T15:10:58.507Z,2.45
2022-08-29T15:14:04.368Z,2.55
2022-08-29T15:17:07.928Z,2.30
2022-08-29T15:20:35.604Z,1.95
2022-08-29T15:23:35.330Z,2.55
2022-08-29T15:26:39.439Z,2.50
2022-08-29T15:29:42.130Z,2.50
2022-08-29T15:32:44.857Z,2.15
2022-08-29T15:35:51.989Z,2.35
2022-08-29T15:38:54.952Z,2.55
2022-08-29T15:42:01.027Z,2.30
2022-08-29T15:45:07.982Z,2.60
2022-08-29T15:48:11.572Z,2.08
2022-08-29T15:51:14.651Z,2.35
2022-08-29T15:54:18.683Z,2.20
2022-08-29T15:57:22.829Z,2.45
2022-08-29T16:00:30.693Z,2.80
2022-08-29T16:03:33.667Z,2.50
2022-08-29T16:06:36.441Z,2.13
2022-08-29T16:09:39.192Z,2.63
2022-08-29T16:12:43.274Z,2.20
2022-08-29T16:15:46.148Z,2.38
2022-08-29T16:18:49.016Z,2.20
2022-08-29T16:21:51.949Z,2.15
2022-08-29T16:24:54.982Z,2.35
2022-08-29T16:27:59.326Z,2.20
2022-08-29T16:31:02.498Z,2.00
2022-08-29T16:34:05.610Z,2.25
2022-08-29T16:37:08.418Z,2.33
2022-08-29T16:40:13.419Z,2.10
2022-08-29T16:43:17.777Z,2.40
2022-08-29T16:46:23.353Z,2.25
2022-08-29T16:49:26.058Z,1.98
2022-08-29T16:52:29.256Z,1.92
2022-08-29T16:55:33.170Z,2.28
2022-08-29T16:59:09.381Z,2.78
2022-08-29T17:02:12.405Z,2.88
2022-08-29T17:05:15.622Z,2.67
2022-08-29T17:08:17.399Z,2.67
2022-08-29T17:11:19.836Z,2.40
2022-08-29T17:14:24.135Z,2.90
2022-08-29T17:17:26.860Z,3.45
2022-08-29T17:20:30.804Z,2.72
2022-08-29T17:23:36.133Z,3.10
2022-08-29T17:26:41.386Z,3.15
2022-08-29T17:29:47.221Z,2.53
2022-08-29T17:32:49.881Z,2.75
2022-08-29T17:35:52.593Z,2.60
2022-08-29T17:38:55.524Z,2.67
2022-08-29T17:41:58.409Z,2.72
2022-08-29T17:45:02.540Z,3.05
2022-08-29T17:48:05.556Z,2.95
2022-08-29T17:51:08.321Z,2.92
2022-08-29T17:54:12.408Z,2.90
2022-08-29T17:57:17.409Z,3.00
2022-08-29T18:03:26.932Z,3.00
2022-08-29T18:09:35.173Z,3.28
2022-08-29T18:15:43.147Z,4.05
2022-08-29T18:18:47.472Z,3.58
2022-08-29T18:21:51.440Z,3.10
2022-08-29T18:24:54.491Z,3.50
2022-08-29T18:27:57.191Z,3.30
2022-08-29T18:31:02.934Z,3.17
2022-08-29T18:34:06.076Z,4.82
2022-08-29T18:37:08.737Z,3.50
2022-08-29T18:40:12.505Z,3.80
2022-08-29T18:43:15.241Z,3.70
2022-08-29T18:46:19.837Z,4.10
2022-08-29T18:49:43.682Z,3.53
2022-08-29T18:52:46.722Z,3.50
2022-08-29T18:55:52.835Z,3.87
2022-08-29T18:58:58.853Z,3.63
2022-08-29T19:02:03.617Z,3.67
2022-08-29T19:05:07.442Z,4.27
2022-08-29T19:08:11.650Z,3.83
2022-08-29T19:11:14.849Z,4.00
2022-08-29T19:14:17.752Z,4.23
2022-08-29T19:17:21.834Z,3.47
2022-08-29T19:20:45.236Z,4.10
2022-08-29T19:26:55.854Z,3.47
2022-08-29T19:30:00.367Z,3.40
2022-08-29T19:33:11.259Z,4.00
2022-08-29T19:36:14.711Z,4.10
2022-08-29T19:39:17.550Z,3.43
2022-08-29T19:42:20.178Z,5.10
2022-08-29T19:45:23.355Z,3.80
2022-08-29T19:48:27.815Z,3.87
2022-08-29T19:51:32.823Z,3.97
2022-08-29T19:54:35.614Z,3.87
2022-08-29T19:57:38.503Z,4.00
2022-08-29T20:00:42.089Z,3.87
2022-08-29T20:03:46.629Z,3.90
2022-08-29T20:06:49.441Z,5.10
2022-08-29T20:09:53.455Z,4.20
2022-08-29T20:12:58.237Z,4.00
2022-08-29T20:16:01.522Z,4.10
2022-08-29T20:19:06.190Z,4.60
2022-08-29T20:22:08.894Z,3.70
2022-08-29T20:25:12.046Z,3.80
2022-08-29T20:31:20.594Z,4.00
2022-08-29T20:34:28.371Z,3.73
2022-08-29T20:37:31.219Z,3.83
2022-08-29T20:40:34.289Z,3.80
2022-08-29T20:46:42.333Z,3.90
2022-08-29T20:52:49.397Z,3.37
2022-08-29T20:55:52.136Z,3.47
2022-08-29T20:58:55.535Z,3.30
2022-08-29T21:01:58.423Z,4.03
2022-08-29T21:05:20.051Z,3.08
2022-08-29T21:08:25.291Z,2.97
2022-08-29T21:11:28.066Z,4.20
2022-08-29T21:14:30.929Z,4.03
2022-08-29T21:17:33.764Z,3.35
2022-08-29T21:20:53.590Z,2.95
2022-08-29T21:23:58.187Z,3.57
2022-08-29T21:27:00.851Z,4.07
2022-08-29T21:30:03.564Z,4.55
2022-08-29T21:33:08.425Z,3.20
2022-08-29T21:36:14.049Z,3.47
2022-08-29T21:39:28.752Z,3.33
2022-08-29T21:42:31.873Z,3.23
2022-08-29T21:45:35.126Z,3.50
2022-08-29T21:48:37.982Z,3.20
2022-08-29T21:51:42.072Z,3.60
2022-08-29T21:54:44.884Z,3.43
2022-08-29T21:57:55.944Z,2.58
2022-08-29T22:00:58.658Z,3.00
2022-08-29T22:04:02.968Z,3.08
2022-08-29T22:07:07.403Z,3.30
2022-08-29T22:10:12.152Z,3.20
2022-08-29T22:13:15.503Z,3.43
2022-08-29T22:16:30.416Z,3.73
2022-08-29T22:19:36.204Z,3.73
2022-08-29T22:22:40.315Z,3.30
2022-08-29T22:25:42.944Z,2.93
2022-08-29T22:28:46.058Z,3.13
2022-08-29T22:34:51.202Z,3.33
2022-08-29T22:37:55.288Z,3.22
2022-08-29T22:40:58.040Z,3.20
2022-08-29T22:44:47.091Z,3.00
2022-08-29T22:47:25.601Z,3.10
2022-08-29T22:50:28.769Z,3.10
2022-08-29T22:56:37.349Z,3.13
2022-08-29T22:59:41.469Z,3.03
2022-08-29T23:02:44.554Z,3.00
2022-08-29T23:05:47.290Z,3.00
2022-08-29T23:08:51.757Z,3.40
2022-08-29T23:11:54.495Z,3.13
2022-08-29T23:14:57.253Z,2.90
2022-08-29T23:17:59.997Z,3.33
2022-08-29T23:21:02.976Z,2.95
2022-08-29T23:24:09.629Z,2.80
2022-08-29T23:27:12.309Z,3.50
2022-08-29T23:30:15.390Z,3.40
2022-08-29T23:33:18.972Z,4.13
2022-08-29T23:36:22.581Z,3.30
2022-08-29T23:39:26.744Z,3.50
2022-08-29T23:42:30.767Z,3.80
2022-08-29T23:45:33.364Z,3.13
2022-08-29T23:48:36.353Z,3.67
2022-08-29T23:51:39.045Z,3.28
2022-08-29T23:54:43.046Z,3.25
2022-08-29T23:57:46.256Z,3.40
